sensor_id;sensor_type;location;lat;lon;timestamp;pressure;altitude;pressure_sealevel;temperature;humidity
14242;BME280;7205;50.864;12.766;2022-08-19T00:01:20;97037.47;;;20.36;98.13
14242;BME280;7205;50.864;12.766;2022-08-19T00:03:48;97020.78;;;20.34;98.20
14242;BME280;7205;50.864;12.766;2022-08-19T00:06:15;97032.09;;;20.36;98.24
14242;BME280;7205;50.864;12.766;2022-08-19T00:08:43;97021.88;;;20.33;97.92
14242;BME280;7205;50.864;12.766;2022-08-19T00:11:11;97019.41;;;20.31;98.23
14242;BME280;7205;50.864;12.766;2022-08-19T00:13:38;97014.56;;;20.28;98.29
14242;BME280;7205;50.864;12.766;2022-08-19T00:16:06;97007.03;;;20.25;98.68
14242;BME280;7205;50.864;12.766;2022-08-19T00:18:33;97008.09;;;20.24;99.00
14242;BME280;7205;50.864;12.766;2022-08-19T00:21:01;96999.50;;;20.22;99.12
14242;BME280;7205;50.864;12.766;2022-08-19T00:23:28;97002.16;;;20.22;99.47
14242;BME280;7205;50.864;12.766;2022-08-19T00:25:55;96998.66;;;20.22;99.52
14242;BME280;7205;50.864;12.766;2022-08-19T00:28:22;96990.88;;;20.20;99.64
14242;BME280;7205;50.864;12.766;2022-08-19T00:30:49;96987.63;;;20.18;99.82
14242;BME280;7205;50.864;12.766;2022-08-19T00:33:18;96987.06;;;20.16;100.00
14242;BME280;7205;50.864;12.766;2022-08-19T00:35:45;96981.69;;;20.16;100.00
14242;BME280;7205;50.864;12.766;2022-08-19T00:38:14;96973.09;;;20.14;100.00
14242;BME280;7205;50.864;12.766;2022-08-19T00:40:42;96974.41;;;20.12;100.00
14242;BME280;7205;50.864;12.766;2022-08-19T00:43:12;96982.69;;;20.10;100.00
14242;BME280;7205;50.864;12.766;2022-08-19T00:45:42;96972.78;;;20.11;100.00
14242;BME280;7205;50.864;12.766;2022-08-19T00:48:09;96978.16;;;20.11;100.00
14242;BME280;7205;50.864;12.766;2022-08-19T00:50:39;96968.47;;;20.10;100.00
14242;BME280;7205;50.864;12.766;2022-08-19T00:53:09;96963.34;;;20.08;100.00
14242;BME280;7205;50.864;12.766;2022-08-19T00:55:38;96952.38;;;20.10;100.00
14242;BME280;7205;50.864;12.766;2022-08-19T00:58:08;96953.19;;;20.10;100.00
14242;BME280;7205;50.864;12.766;2022-08-19T01:00:37;96959.13;;;20.12;100.00
14242;BME280;7205;50.864;12.766;2022-08-19T01:03:08;96946.53;;;20.13;100.00
14242;BME280;7205;50.864;12.766;2022-08-19T01:05:35;96947.91;;;20.15;100.00
14242;BME280;7205;50.864;12.766;2022-08-19T01:08:05;96958.00;;;20.08;100.00
14242;BME280;7205;50.864;12.766;2022-08-19T01:10:36;96962.19;;;19.99;100.00
14242;BME280;7205;50.864;12.766;2022-08-19T01:13:05;96962.88;;;19.89;100.00
14242;BME280;7205;50.864;12.766;2022-08-19T01:15:39;96950.50;;;19.83;100.00
14242;BME280;7205;50.864;12.766;2022-08-19T01:18:09;96956.59;;;19.79;100.00
14242;BME280;7205;50.864;12.766;2022-08-19T01:20:37;96956.28;;;19.75;100.00
14242;BME280;7205;50.864;12.766;2022-08-19T01:23:06;96957.34;;;19.74;100.00
14242;BME280;7205;50.864;12.766;2022-08-19T01:25:38;96948.75;;;19.72;100.00
14242;BME280;7205;50.864;12.766;2022-08-19T01:28:06;96955.16;;;19.71;100.00
14242;BME280;7205;50.864;12.766;2022-08-19T01:30:35;96950.06;;;19.70;100.00
14242;BME280;7205;50.864;12.766;2022-08-19T01:33:02;96959.16;;;19.69;100.00
14242;BME280;7205;50.864;12.766;2022-08-19T01:35:31;96972.56;;;19.69;100.00
14242;BME280;7205;50.864;12.766;2022-08-19T01:38:00;96972.06;;;19.72;100.00
14242;BME280;7205;50.864;12.766;2022-08-19T01:40:31;96965.38;;;19.74;100.00
14242;BME280;7205;50.864;12.766;2022-08-19T01:42:59;96964.91;;;19.77;100.00
14242;BME280;7205;50.864;12.766;2022-08-19T01:45:28;96957.91;;;19.76;100.00
14242;BME280;7205;50.864;12.766;2022-08-19T01:47:59;96961.72;;;19.80;100.00
14242;BME280;7205;50.864;12.766;2022-08-19T01:50:25;96949.34;;;19.79;100.00
14242;BME280;7205;50.864;12.766;2022-08-19T01:52:53;96959.03;;;19.80;100.00
14242;BME280;7205;50.864;12.766;2022-08-19T01:55:21;96961.72;;;19.80;100.00
14242;BME280;7205;50.864;12.766;2022-08-19T01:57:54;96953.41;;;19.82;100.00
14242;BME280;7205;50.864;12.766;2022-08-19T02:00:23;96940.59;;;19.84;100.00
14242;BME280;7205;50.864;12.766;2022-08-19T02:02:50;96935.75;;;19.86;100.00
14242;BME280;7205;50.864;12.766;2022-08-19T02:05:17;96924.00;;;19.87;100.00
14242;BME280;7205;50.864;12.766;2022-08-19T02:07:46;96923.75;;;19.88;100.00
14242;BME280;7205;50.864;12.766;2022-08-19T02:10:16;96929.09;;;19.88;100.00
14242;BME280;7205;50.864;12.766;2022-08-19T02:12:43;96931.28;;;19.91;100.00
14242;BME280;7205;50.864;12.766;2022-08-19T02:15:12;96938.28;;;19.92;100.00
14242;BME280;7205;50.864;12.766;2022-08-19T02:17:40;96961.06;;;19.95;100.00
14242;BME280;7205;50.864;12.766;2022-08-19T02:20:08;96963.50;;;19.96;100.00
14242;BME280;7205;50.864;12.766;2022-08-19T02:22:35;96964.06;;;19.98;100.00
14242;BME280;7205;50.864;12.766;2022-08-19T02:25:03;96959.00;;;20.02;100.00
14242;BME280;7205;50.864;12.766;2022-08-19T02:27:30;96959.84;;;20.03;100.00
14242;BME280;7205;50.864;12.766;2022-08-19T02:29:59;96964.94;;;20.04;100.00
14242;BME280;7205;50.864;12.766;2022-08-19T02:32:27;96972.47;;;20.07;100.00
14242;BME280;7205;50.864;12.766;2022-08-19T02:34:56;96979.19;;;20.10;100.00
14242;BME280;7205;50.864;12.766;2022-08-19T02:37:22;96979.25;;;20.15;100.00
14242;BME280;7205;50.864;12.766;2022-08-19T02:40:07;96967.00;;;20.19;100.00
14242;BME280;7205;50.864;12.766;2022-08-19T02:42:34;96967.56;;;20.21;100.00
14242;BME280;7205;50.864;12.766;2022-08-19T02:45:02;96956.03;;;20.20;100.00
14242;BME280;7205;50.864;12.766;2022-08-19T02:47:32;96950.91;;;20.19;100.00
14242;BME280;7205;50.864;12.766;2022-08-19T02:50:00;96961.63;;;20.19;100.00
14242;BME280;7205;50.864;12.766;2022-08-19T02:52:27;96963.50;;;20.18;100.00
14242;BME280;7205;50.864;12.766;2022-08-19T02:54:54;96972.09;;;20.20;100.00
14242;BME280;7205;50.864;12.766;2022-08-19T02:57:23;96975.09;;;20.24;100.00
14242;BME280;7205;50.864;12.766;2022-08-19T02:59:50;96980.47;;;20.24;100.00
14242;BME280;7205;50.864;12.766;2022-08-19T03:02:17;96995.47;;;20.25;100.00
14242;BME280;7205;50.864;12.766;2022-08-19T03:04:45;97000.09;;;20.29;100.00
14242;BME280;7205;50.864;12.766;2022-08-19T03:07:13;97008.47;;;20.33;100.00
14242;BME280;7205;50.864;12.766;2022-08-19T03:09:40;97015.75;;;20.37;100.00
14242;BME280;7205;50.864;12.766;2022-08-19T03:12:08;97019.28;;;20.43;100.00
14242;BME280;7205;50.864;12.766;2022-08-19T03:14:35;97017.72;;;20.47;100.00
14242;BME280;7205;50.864;12.766;2022-08-19T03:17:03;97018.84;;;20.51;100.00
14242;BME280;7205;50.864;12.766;2022-08-19T03:19:31;97015.66;;;20.54;100.00
14242;BME280;7205;50.864;12.766;2022-08-19T03:21:59;97023.19;;;20.57;100.00
14242;BME280;7205;50.864;12.766;2022-08-19T03:24:26;97025.59;;;20.58;100.00
14242;BME280;7205;50.864;12.766;2022-08-19T03:26:54;97021.88;;;20.59;100.00
14242;BME280;7205;50.864;12.766;2022-08-19T03:29:23;97016.25;;;20.61;100.00
14242;BME280;7205;50.864;12.766;2022-08-19T03:31:50;97025.34;;;20.60;100.00
14242;BME280;7205;50.864;12.766;2022-08-19T03:34:21;97021.31;;;20.57;100.00
14242;BME280;7205;50.864;12.766;2022-08-19T03:36:52;97018.63;;;20.57;100.00
14242;BME280;7205;50.864;12.766;2022-08-19T03:39:21;97006.53;;;20.55;100.00
14242;BME280;7205;50.864;12.766;2022-08-19T03:41:49;97009.47;;;20.53;100.00
14242;BME280;7205;50.864;12.766;2022-08-19T03:44:18;97010.53;;;20.52;100.00
14242;BME280;7205;50.864;12.766;2022-08-19T03:46:47;97010.78;;;20.51;100.00
14242;BME280;7205;50.864;12.766;2022-08-19T03:49:14;97016.16;;;20.51;100.00
14242;BME280;7205;50.864;12.766;2022-08-19T03:51:42;97011.06;;;20.49;100.00
14242;BME280;7205;50.864;12.766;2022-08-19T03:54:11;97007.28;;;20.50;100.00
14242;BME280;7205;50.864;12.766;2022-08-19T03:56:42;97015.59;;;20.49;100.00
14242;BME280;7205;50.864;12.766;2022-08-19T03:59:13;97013.72;;;20.49;100.00
14242;BME280;7205;50.864;12.766;2022-08-19T04:01:40;97015.84;;;20.47;100.00
14242;BME280;7205;50.864;12.766;2022-08-19T04:04:07;97022.25;;;20.46;100.00
14242;BME280;7205;50.864;12.766;2022-08-19T04:06:37;97015.28;;;20.45;100.00
14242;BME280;7205;50.864;12.766;2022-08-19T04:09:06;97012.59;;;20.45;100.00
14242;BME280;7205;50.864;12.766;2022-08-19T04:11:36;97015.53;;;20.44;100.00
14242;BME280;7205;50.864;12.766;2022-08-19T04:14:09;97010.69;;;20.41;100.00
14242;BME280;7205;50.864;12.766;2022-08-19T04:16:36;97011.19;;;20.38;100.00
14242;BME280;7205;50.864;12.766;2022-08-19T04:19:04;97009.00;;;20.35;100.00
14242;BME280;7205;50.864;12.766;2022-08-19T04:21:31;97005.78;;;20.33;100.00
14242;BME280;7205;50.864;12.766;2022-08-19T04:23:58;97012.44;;;20.30;100.00
14242;BME280;7205;50.864;12.766;2022-08-19T04:26:29;97002.78;;;20.29;100.00
14242;BME280;7205;50.864;12.766;2022-08-19T04:28:58;97004.91;;;20.27;100.00
14242;BME280;7205;50.864;12.766;2022-08-19T04:31:28;97002.47;;;20.26;100.00
14242;BME280;7205;50.864;12.766;2022-08-19T04:33:57;97012.13;;;20.27;100.00
14242;BME280;7205;50.864;12.766;2022-08-19T04:36:26;97007.03;;;20.25;100.00
14242;BME280;7205;50.864;12.766;2022-08-19T04:38:55;97015.63;;;20.27;100.00
14242;BME280;7205;50.864;12.766;2022-08-19T04:41:22;97009.44;;;20.27;100.00
14242;BME280;7205;50.864;12.766;2022-08-19T04:44:07;97003.78;;;20.23;100.00
14242;BME280;7205;50.864;12.766;2022-08-19T04:46:35;97000.53;;;20.21;100.00
14242;BME280;7205;50.864;12.766;2022-08-19T04:49:04;96998.09;;;20.20;100.00
14242;BME280;7205;50.864;12.766;2022-08-19T04:51:32;97004.78;;;20.17;100.00
14242;BME280;7205;50.864;12.766;2022-08-19T04:54:01;97013.66;;;20.18;100.00
14242;BME280;7205;50.864;12.766;2022-08-19T04:56:28;97015.25;;;20.19;100.00
14242;BME280;7205;50.864;12.766;2022-08-19T04:58:56;97014.44;;;20.18;100.00
14242;BME280;7205;50.864;12.766;2022-08-19T05:01:25;97020.06;;;20.17;100.00
14242;BME280;7205;50.864;12.766;2022-08-19T05:03:56;97021.13;;;20.16;100.00
14242;BME280;7205;50.864;12.766;2022-08-19T05:06:23;97022.41;;;20.13;100.00
14242;BME280;7205;50.864;12.766;2022-08-19T05:08:51;97019.16;;;20.11;100.00
14242;BME280;7205;50.864;12.766;2022-08-19T05:11:19;97019.41;;;20.10;100.00
14242;BME280;7205;50.864;12.766;2022-08-19T05:13:47;97018.63;;;20.09;100.00
14242;BME280;7205;50.864;12.766;2022-08-19T05:16:16;97021.56;;;20.08;100.00
14242;BME280;7205;50.864;12.766;2022-08-19T05:18:43;97018.63;;;20.09;100.00
14242;BME280;7205;50.864;12.766;2022-08-19T05:21:29;97025.53;;;20.05;100.00
14242;BME280;7205;50.864;12.766;2022-08-19T05:24:15;97023.34;;;20.02;100.00
14242;BME280;7205;50.864;12.766;2022-08-19T05:26:44;97036.19;;;20.00;100.00
14242;BME280;7205;50.864;12.766;2022-08-19T05:29:13;97028.66;;;19.97;100.00
14242;BME280;7205;50.864;12.766;2022-08-19T05:31:40;97033.75;;;19.98;100.00
14242;BME280;7205;50.864;12.766;2022-08-19T05:34:08;97049.84;;;19.98;100.00
14242;BME280;7205;50.864;12.766;2022-08-19T05:36:39;97046.59;;;19.96;100.00
14242;BME280;7205;50.864;12.766;2022-08-19T05:39:07;97056.50;;;19.96;100.00
14242;BME280;7205;50.864;12.766;2022-08-19T05:41:34;97052.44;;;19.93;100.00
14242;BME280;7205;50.864;12.766;2022-08-19T05:44:03;97058.63;;;19.94;100.00
14242;BME280;7205;50.864;12.766;2022-08-19T05:46:32;97068.03;;;19.96;100.00
14242;BME280;7205;50.864;12.766;2022-08-19T05:48:58;97064.53;;;19.96;100.00
14242;BME280;7205;50.864;12.766;2022-08-19T05:51:25;97075.50;;;19.94;100.00
14242;BME280;7205;50.864;12.766;2022-08-19T05:53:53;97086.81;;;19.96;100.00
14242;BME280;7205;50.864;12.766;2022-08-19T05:56:20;97086.81;;;19.96;100.00
14242;BME280;7205;50.864;12.766;2022-08-19T05:58:47;97088.44;;;19.98;100.00
14242;BME280;7205;50.864;12.766;2022-08-19T06:01:16;97096.22;;;19.99;100.00
14242;BME280;7205;50.864;12.766;2022-08-19T06:03:44;97114.75;;;20.01;100.00
14242;BME280;7205;50.864;12.766;2022-08-19T06:06:12;97115.31;;;20.03;100.00
14242;BME280;7205;50.864;12.766;2022-08-19T06:08:40;97120.44;;;20.04;100.00
14242;BME280;7205;50.864;12.766;2022-08-19T06:11:15;97117.50;;;20.06;100.00
14242;BME280;7205;50.864;12.766;2022-08-19T06:13:42;97130.16;;;20.10;100.00
14242;BME280;7205;50.864;12.766;2022-08-19T06:16:09;97125.09;;;20.14;100.00
14242;BME280;7205;50.864;12.766;2022-08-19T06:18:36;97143.41;;;20.17;100.00
14242;BME280;7205;50.864;12.766;2022-08-19T06:21:03;97135.09;;;20.18;100.00
14242;BME280;7205;50.864;12.766;2022-08-19T06:23:30;97147.78;;;20.23;100.00
14242;BME280;7205;50.864;12.766;2022-08-19T06:25:57;97154.75;;;20.24;100.00
14242;BME280;7205;50.864;12.766;2022-08-19T06:28:25;97149.41;;;20.24;100.00
14242;BME280;7205;50.864;12.766;2022-08-19T06:30:52;97154.19;;;20.22;100.00
14242;BME280;7205;50.864;12.766;2022-08-19T06:33:18;97156.88;;;20.22;100.00
14242;BME280;7205;50.864;12.766;2022-08-19T06:35:45;97159.56;;;20.22;100.00
14242;BME280;7205;50.864;12.766;2022-08-19T06:38:12;97156.63;;;20.23;100.00
14242;BME280;7205;50.864;12.766;2022-08-19T06:40:39;97161.19;;;20.23;100.00
14242;BME280;7205;50.864;12.766;2022-08-19T06:43:06;97159.81;;;20.20;100.00
14242;BME280;7205;50.864;12.766;2022-08-19T06:45:36;97170.53;;;20.20;100.00
14242;BME280;7205;50.864;12.766;2022-08-19T06:48:03;97172.16;;;20.21;100.00
14242;BME280;7205;50.864;12.766;2022-08-19T06:50:30;97171.34;;;20.21;100.00
14242;BME280;7205;50.864;12.766;2022-08-19T06:52:57;97184.50;;;20.22;100.00
14242;BME280;7205;50.864;12.766;2022-08-19T06:55:24;97179.97;;;20.23;100.00
14242;BME280;7205;50.864;12.766;2022-08-19T06:57:51;97172.72;;;20.23;100.00
14242;BME280;7205;50.864;12.766;2022-08-19T07:00:18;97168.69;;;20.21;100.00
14242;BME280;7205;50.864;12.766;2022-08-19T07:02:46;97174.28;;;20.19;100.00
14242;BME280;7205;50.864;12.766;2022-08-19T07:05:14;97173.97;;;20.16;100.00
14242;BME280;7205;50.864;12.766;2022-08-19T07:07:42;97178.41;;;20.10;100.00
14242;BME280;7205;50.864;12.766;2022-08-19T07:10:09;97181.59;;;20.07;100.00
14242;BME280;7205;50.864;12.766;2022-08-19T07:12:37;97177.75;;;20.03;100.00
14242;BME280;7205;50.864;12.766;2022-08-19T07:15:05;97167.28;;;20.02;100.00
14242;BME280;7205;50.864;12.766;2022-08-19T07:17:34;97171.28;;;19.99;100.00
14242;BME280;7205;50.864;12.766;2022-08-19T07:20:05;97173.16;;;19.98;100.00
14242;BME280;7205;50.864;12.766;2022-08-19T07:22:33;97169.41;;;19.99;100.00
14242;BME280;7205;50.864;12.766;2022-08-19T07:25:00;97172.41;;;20.03;100.00
14242;BME280;7205;50.864;12.766;2022-08-19T07:27:28;97175.91;;;20.04;100.00
14242;BME280;7205;50.864;12.766;2022-08-19T07:29:55;97175.41;;;20.07;100.00
14242;BME280;7205;50.864;12.766;2022-08-19T07:32:24;97184.09;;;20.14;100.00
14242;BME280;7205;50.864;12.766;2022-08-19T07:34:52;97191.41;;;20.18;100.00
14242;BME280;7205;50.864;12.766;2022-08-19T07:37:20;97188.81;;;20.23;100.00
14242;BME280;7205;50.864;12.766;2022-08-19T07:39:47;97196.94;;;20.28;100.00
14242;BME280;7205;50.864;12.766;2022-08-19T07:42:14;97200.75;;;20.32;100.00
14242;BME280;7205;50.864;12.766;2022-08-19T07:44:46;97188.44;;;20.36;100.00
14242;BME280;7205;50.864;12.766;2022-08-19T07:47:13;97190.41;;;20.41;100.00
14242;BME280;7205;50.864;12.766;2022-08-19T07:49:43;97185.09;;;20.46;100.00
14242;BME280;7205;50.864;12.766;2022-08-19T07:52:10;97195.66;;;20.52;100.00
14242;BME280;7205;50.864;12.766;2022-08-19T07:54:40;97200.59;;;20.60;100.00
14242;BME280;7205;50.864;12.766;2022-08-19T07:57:07;97196.66;;;20.68;100.00
14242;BME280;7205;50.864;12.766;2022-08-19T07:59:35;97200.84;;;20.80;100.00
14242;BME280;7205;50.864;12.766;2022-08-19T08:02:03;97216.00;;;20.91;100.00
14242;BME280;7205;50.864;12.766;2022-08-19T08:04:30;97211.84;;;21.00;100.00
14242;BME280;7205;50.864;12.766;2022-08-19T08:07:15;97211.06;;;21.05;100.00
14242;BME280;7205;50.864;12.766;2022-08-19T08:10:01;97212.97;;;21.04;100.00
14242;BME280;7205;50.864;12.766;2022-08-19T08:12:32;97212.66;;;21.01;100.00
14242;BME280;7205;50.864;12.766;2022-08-19T08:15:01;97226.81;;;20.96;100.00
14242;BME280;7205;50.864;12.766;2022-08-19T08:17:30;97218.69;;;20.91;100.00
14242;BME280;7205;50.864;12.766;2022-08-19T08:19:57;97221.84;;;20.88;100.00
14242;BME280;7205;50.864;12.766;2022-08-19T08:22:25;97217.56;;;20.87;100.00
14242;BME280;7205;50.864;12.766;2022-08-19T08:25:13;97229.59;;;20.85;100.00
14242;BME280;7205;50.864;12.766;2022-08-19T08:27:42;97231.75;;;20.83;100.00
14242;BME280;7205;50.864;12.766;2022-08-19T08:30:12;97234.91;;;20.80;100.00
14242;BME280;7205;50.864;12.766;2022-08-19T08:32:40;97235.91;;;20.74;100.00
14242;BME280;7205;50.864;12.766;2022-08-19T08:35:10;97228.88;;;20.68;100.00
14242;BME280;7205;50.864;12.766;2022-08-19T08:37:39;97230.41;;;20.64;100.00
14242;BME280;7205;50.864;12.766;2022-08-19T08:40:16;97231.50;;;20.63;100.00
14242;BME280;7205;50.864;12.766;2022-08-19T08:42:50;97231.75;;;20.61;100.00
14242;BME280;7205;50.864;12.766;2022-08-19T08:45:18;97230.41;;;20.64;100.00
14242;BME280;7205;50.864;12.766;2022-08-19T08:47:48;97237.97;;;20.67;100.00
14242;BME280;7205;50.864;12.766;2022-08-19T08:50:21;97237.72;;;20.68;100.00
14242;BME280;7205;50.864;12.766;2022-08-19T08:52:51;97239.03;;;20.66;100.00
14242;BME280;7205;50.864;12.766;2022-08-19T08:55:25;97254.00;;;20.62;100.00
14242;BME280;7205;50.864;12.766;2022-08-19T08:57:57;97254.25;;;20.60;100.00
14242;BME280;7205;50.864;12.766;2022-08-19T09:00:28;97259.88;;;20.59;100.00
14242;BME280;7205;50.864;12.766;2022-08-19T09:02:57;97263.38;;;20.59;100.00
14242;BME280;7205;50.864;12.766;2022-08-19T09:05:30;97262.28;;;20.60;100.00
14242;BME280;7205;50.864;12.766;2022-08-19T09:08:02;97254.00;;;20.62;100.00
14242;BME280;7205;50.864;12.766;2022-08-19T09:10:38;97236.84;;;20.63;100.00
14242;BME280;7205;50.864;12.766;2022-08-19T09:13:15;97233.16;;;20.69;100.00
14242;BME280;7205;50.864;12.766;2022-08-19T09:15:49;97231.13;;;20.76;100.00
14242;BME280;7205;50.864;12.766;2022-08-19T09:18:19;97221.53;;;20.85;100.00
14242;BME280;7205;50.864;12.766;2022-08-19T09:20:46;97217.47;;;20.99;100.00
14242;BME280;7205;50.864;12.766;2022-08-19T09:23:13;97213.59;;;21.11;100.00
14242;BME280;7205;50.864;12.766;2022-08-19T09:25:41;97207.25;;;21.23;100.00
14242;BME280;7205;50.864;12.766;2022-08-19T09:28:08;97210.56;;;21.30;100.00
14242;BME280;7205;50.864;12.766;2022-08-19T09:30:39;97216.97;;;21.29;100.00
14242;BME280;7205;50.864;12.766;2022-08-19T09:33:07;97220.22;;;21.31;100.00
14242;BME280;7205;50.864;12.766;2022-08-19T09:35:34;97221.88;;;21.32;100.00
14242;BME280;7205;50.864;12.766;2022-08-19T09:38:01;97218.09;;;21.33;100.00
14242;BME280;7205;50.864;12.766;2022-08-19T09:40:29;97210.59;;;21.35;100.00
14242;BME280;7205;50.864;12.766;2022-08-19T09:42:58;97224.59;;;21.37;100.00
14242;BME280;7205;50.864;12.766;2022-08-19T09:45:28;97225.97;;;21.39;100.00
14242;BME280;7205;50.864;12.766;2022-08-19T09:47:56;97221.97;;;21.42;99.83
14242;BME280;7205;50.864;12.766;2022-08-19T09:50:23;97219.28;;;21.42;98.75
14242;BME280;7205;50.864;12.766;2022-08-19T09:52:50;97226.25;;;21.43;98.41
14242;BME280;7205;50.864;12.766;2022-08-19T09:55:19;97227.56;;;21.40;97.91
14242;BME280;7205;50.864;12.766;2022-08-19T09:57:46;97228.66;;;21.39;97.89
14242;BME280;7205;50.864;12.766;2022-08-19T10:00:14;97229.97;;;21.37;97.10
14242;BME280;7205;50.864;12.766;2022-08-19T10:02:41;97225.34;;;21.32;97.26
14242;BME280;7205;50.864;12.766;2022-08-19T10:05:08;97227.72;;;21.29;96.95
14242;BME280;7205;50.864;12.766;2022-08-19T10:07:52;97234.38;;;21.21;96.77
14242;BME280;7205;50.864;12.766;2022-08-19T10:10:20;97228.13;;;21.15;97.41
14242;BME280;7205;50.864;12.766;2022-08-19T10:12:47;97224.94;;;21.18;98.56
14242;BME280;7205;50.864;12.766;2022-08-19T10:15:15;97231.47;;;21.28;99.03
14242;BME280;7205;50.864;12.766;2022-08-19T10:17:46;97236.09;;;21.32;98.08
14242;BME280;7205;50.864;12.766;2022-08-19T10:20:13;97234.22;;;21.33;97.52
14242;BME280;7205;50.864;12.766;2022-08-19T10:22:40;97239.09;;;21.36;98.19
14242;BME280;7205;50.864;12.766;2022-08-19T10:25:08;97236.69;;;21.39;97.56
14242;BME280;7205;50.864;12.766;2022-08-19T10:27:36;97240.47;;;21.38;96.46
14242;BME280;7205;50.864;12.766;2022-08-19T10:30:04;97231.53;;;21.33;95.90
14242;BME280;7205;50.864;12.766;2022-08-19T10:32:36;97247.34;;;21.29;96.00
14242;BME280;7205;50.864;12.766;2022-08-19T10:35:03;97246.47;;;21.24;95.72
14242;BME280;7205;50.864;12.766;2022-08-19T10:37:33;97253.94;;;21.17;95.55
14242;BME280;7205;50.864;12.766;2022-08-19T10:40:01;97262.72;;;21.12;95.92
14242;BME280;7205;50.864;12.766;2022-08-19T10:42:28;97259.97;;;21.07;95.90
14242;BME280;7205;50.864;12.766;2022-08-19T10:44:56;97258.63;;;21.04;96.50
14242;BME280;7205;50.864;12.766;2022-08-19T10:47:24;97271.53;;;21.07;97.39
14242;BME280;7205;50.864;12.766;2022-08-19T10:49:54;97279.66;;;21.12;97.63
14242;BME280;7205;50.864;12.766;2022-08-19T10:52:39;97280.53;;;21.18;98.09
14242;BME280;7205;50.864;12.766;2022-08-19T10:55:07;97282.78;;;21.26;97.38
14242;BME280;7205;50.864;12.766;2022-08-19T10:57:51;97278.50;;;21.30;96.99
14242;BME280;7205;50.864;12.766;2022-08-19T11:00:19;97279.88;;;21.33;96.37
14242;BME280;7205;50.864;12.766;2022-08-19T11:02:46;97282.31;;;21.34;95.74
14242;BME280;7205;50.864;12.766;2022-08-19T11:05:15;97270.44;;;21.30;94.82
14242;BME280;7205;50.864;12.766;2022-08-19T11:07:42;97274.09;;;21.19;94.13
14242;BME280;7205;50.864;12.766;2022-08-19T11:10:12;97286.56;;;21.08;94.00
14242;BME280;7205;50.864;12.766;2022-08-19T11:12:40;97278.31;;;20.93;94.33
14242;BME280;7205;50.864;12.766;2022-08-19T11:15:08;97274.13;;;20.81;95.03
14242;BME280;7205;50.864;12.766;2022-08-19T11:17:36;97279.34;;;20.71;96.11
14242;BME280;7205;50.864;12.766;2022-08-19T11:20:06;97273.09;;;20.65;97.17
14242;BME280;7205;50.864;12.766;2022-08-19T11:22:35;97275.47;;;20.62;97.71
14242;BME280;7205;50.864;12.766;2022-08-19T11:25:03;97275.72;;;20.60;98.13
14242;BME280;7205;50.864;12.766;2022-08-19T11:27:30;97282.72;;;20.61;98.55
14242;BME280;7205;50.864;12.766;2022-08-19T11:29:57;97278.41;;;20.60;98.74
14242;BME280;7205;50.864;12.766;2022-08-19T11:32:24;97282.22;;;20.64;99.18
14242;BME280;7205;50.864;12.766;2022-08-19T11:34:51;97273.66;;;20.67;99.05
14242;BME280;7205;50.864;12.766;2022-08-19T11:37:18;97276.94;;;20.69;98.66
14242;BME280;7205;50.864;12.766;2022-08-19T11:39:46;97273.75;;;20.72;98.72
14242;BME280;7205;50.864;12.766;2022-08-19T11:42:13;97277.50;;;20.71;98.00
14242;BME280;7205;50.864;12.766;2022-08-19T11:44:58;97277.44;;;20.66;97.18
14242;BME280;7205;50.864;12.766;2022-08-19T11:47:25;97283.50;;;20.62;97.22
14242;BME280;7205;50.864;12.766;2022-08-19T11:49:51;97293.13;;;20.58;96.76
14242;BME280;7205;50.864;12.766;2022-08-19T11:52:18;97290.69;;;20.56;96.97
14242;BME280;7205;50.864;12.766;2022-08-19T11:54:47;97288.56;;;20.58;97.04
14242;BME280;7205;50.864;12.766;2022-08-19T11:57:14;97295.31;;;20.61;96.72
14242;BME280;7205;50.864;12.766;2022-08-19T11:59:42;97290.19;;;20.59;96.23
14242;BME280;7205;50.864;12.766;2022-08-19T12:02:13;97296.59;;;20.58;95.88
14242;BME280;7205;50.864;12.766;2022-08-19T12:04:40;97293.84;;;20.53;95.41
14242;BME280;7205;50.864;12.766;2022-08-19T12:07:07;97295.19;;;20.51;95.38
14242;BME280;7205;50.864;12.766;2022-08-19T12:09:34;97290.59;;;20.51;95.84
14242;BME280;7205;50.864;12.766;2022-08-19T12:12:03;97294.19;;;20.57;95.58
14242;BME280;7205;50.864;12.766;2022-08-19T12:14:30;97302.53;;;20.60;95.57
14242;BME280;7205;50.864;12.766;2022-08-19T12:16:57;97294.56;;;20.65;95.20
14242;BME280;7205;50.864;12.766;2022-08-19T12:19:25;97302.94;;;20.69;94.35
14242;BME280;7205;50.864;12.766;2022-08-19T12:21:59;97300.50;;;20.67;93.77
14242;BME280;7205;50.864;12.766;2022-08-19T12:24:27;97311.81;;;20.69;93.25
14242;BME280;7205;50.864;12.766;2022-08-19T12:26:54;97318.22;;;20.68;92.81
14242;BME280;7205;50.864;12.766;2022-08-19T12:29:24;97321.97;;;20.67;92.53
14242;BME280;7205;50.864;12.766;2022-08-19T12:31:54;97313.34;;;20.65;92.80
14242;BME280;7205;50.864;12.766;2022-08-19T12:34:28;97318.72;;;20.65;92.68
14242;BME280;7205;50.864;12.766;2022-08-19T12:36:56;97314.75;;;20.68;92.88
14242;BME280;7205;50.864;12.766;2022-08-19T12:39:23;97320.19;;;20.73;93.43
14242;BME280;7205;50.864;12.766;2022-08-19T12:41:50;97319.44;;;20.77;93.12
14242;BME280;7205;50.864;12.766;2022-08-19T12:44:18;97322.19;;;20.82;92.52
14242;BME280;7205;50.864;12.766;2022-08-19T12:46:46;97323.00;;;20.83;91.81
14242;BME280;7205;50.864;12.766;2022-08-19T12:49:14;97326.50;;;20.83;91.48
14242;BME280;7205;50.864;12.766;2022-08-19T12:51:42;97321.94;;;20.84;90.97
14242;BME280;7205;50.864;12.766;2022-08-19T12:54:09;97325.44;;;20.84;91.02
14242;BME280;7205;50.864;12.766;2022-08-19T12:56:36;97326.81;;;20.87;90.89
14242;BME280;7205;50.864;12.766;2022-08-19T12:59:03;97327.38;;;20.89;90.62
14242;BME280;7205;50.864;12.766;2022-08-19T13:01:31;97325.25;;;20.91;90.33